Domov               UVHVVR             MKGP            O straneh              
ZDRAVSTVENO VARSTVO RASTLIN
  MREŽA AGROMET. POSTAJ
 ► PROGNOSTIČNA OBVESTILA
AGROMETEOROLOŠKI PODATKI -
ARSO
OBVLADOVANJE TVEGANJ ZARADI
NEUGODNIH VREMENSKIH RAZMER
  ► NARAVNE NESREČE
  ► SUŠA/MOČA
  ► NAMAKANJE
  ► ŽLED (gozdarstvo)
KARTOGRAFSKI PRIKAZI
SPLETNE POVEZAVE
PROJEKTI IN PUBLIKACIJE

AGROMETEOROLOŠKA MREŽA: VREMENSKE POSTAJE IN FENOLOŠKA OPAZOVANJA

Pregled podatkov za lokacijo Kamnik, meteorološka postaja 41388

Pregled senzorjev na lokaciji

ID Ime Zadnja
vrednost
Datum
zadnje
spremembe
Tip
senzorja
4235 Omočenost lista (U) 0 U 23.3.2019 12:30 A730WET
4236 Padavine (mm) 0 mm 23.3.2019 12:29 Generic 0.2 mm
4238 Relativna vlaga 2 m (% RH) 41,34 % RH 23.3.2019 12:29 Generic 0 - 100 %
4237 Temperatura 2 m (°C) 14,48 °C 23.3.2019 12:30 Generic -40 - +60 °C

Pregled podatkov zadnjih 24 ur

Zap.
št.
Datum in čas Kamnik
Omočenost
lista
Padavine Relativna
vlaga
2
m
Temperatura
2
m
1 23.3.2019 11:30 0 0 41,3 14,5
2 23.3.2019 11:00 0 0 45,2 13,8
3 23.3.2019 10:30 0 0 55,3 12,3
4 23.3.2019 10:00 0 0 59,4 10,9
5 23.3.2019 09:30 0 0 64,2 9
6 23.3.2019 09:00 0 0 65,6 8,3
7 23.3.2019 08:30 0 0 66,7 7
8 23.3.2019 08:00 2 0 73,1 5,1
9 23.3.2019 07:30 10 0 82 2,9
10 23.3.2019 07:00 4 0 90,3 0,4
11 23.3.2019 06:30 9 0 90,3 0,2
12 23.3.2019 06:00 10 0 89,8 0,4
13 23.3.2019 05:30 10 0 86,2 1,1
14 23.3.2019 05:00 10 0 87,4 1
15 23.3.2019 04:30 10 0 87,2 1,1
16 23.3.2019 04:00 9 0 85,7 1,3
17 23.3.2019 03:30 7 0 84,4 1,8
18 23.3.2019 03:00 4 0 85,4 1,8
19 23.3.2019 02:30 2 0 84,3 2,1
20 23.3.2019 02:00 1 0 81,9 2,6
21 23.3.2019 01:30 0 0 78,1 3,3
22 23.3.2019 01:00 0 0 79,5 3,5
23 23.3.2019 00:30 0 0 77 4,1
24 23.3.2019 00:00 0 0 79,1 4
25 22.3.2019 23:30 0 0 75,1 4,9
26 22.3.2019 23:00 0 0 74,5 5,3
27 22.3.2019 22:30 0 0 72,3 5,8
28 22.3.2019 22:00 0 0 69,5 6,4
29 22.3.2019 21:30 0 0 66,3 7,2
30 22.3.2019 21:00 0 0 63,8 7,8
31 22.3.2019 20:30 0 0 61 8,4
32 22.3.2019 20:00 0 0 53,7 9,8
33 22.3.2019 19:30 0 0 48,7 11,3
34 22.3.2019 19:00 0 0 39,9 13,6
35 22.3.2019 18:30 0 0 35,1 15
36 22.3.2019 18:00 0 0 31,8 15,9
37 22.3.2019 17:30 0 0 28,5 16,6
38 22.3.2019 17:00 0 0 26,7 17,4
39 22.3.2019 16:30 0 0 27,8 17,4
40 22.3.2019 16:00 0 0 30,9 16,8
41 22.3.2019 15:30 0 0 34 16,3
42 22.3.2019 15:00 0 0 36,3 15,9
43 22.3.2019 14:30 0 0 37,4 15,5
44 22.3.2019 14:00 0 0 40 14,9
45 22.3.2019 13:30 0 0 40,4 14,2
46 22.3.2019 13:00 0 0 42,3 13,6
47 22.3.2019 12:30 0 0 43,7 12,8
48 22.3.2019 12:00 0 0 44,9 12,1
© 2011 Ministrstvo za kmetijstvo, gozdarstvo in prehrano. Vse pravice pridržane.